Time;durP1;ratioP1;P1;durP2;ratioP2;P2;SDS_P1;SDS_P2;PMS_P1;PMS_P2;Temp;Humidity;BMP_temperature;BMP_pressure;BME280_temperature;BME280_humidity;BME280_pressure;Samples;Min_cycle;Max_cycle;Signal;HPM_P1;HPM_P2
2022/07/06 00:01:17;;;;;;;;;;;13.10;99.90;;;;;;5072937;28;19967;-70
2022/07/06 00:03:44;;;;;;;;;;;13.00;99.90;;;;;;5069699;28;19932;-70
2022/07/06 00:06:11;;;;;;;;;;;13.00;99.90;;;;;;5072508;28;20447;-70
2022/07/06 00:08:38;;;;;;;;;;;13.00;99.90;;;;;;5071797;28;20392;-70
2022/07/06 00:11:05;;;;;;;;;;;12.90;99.90;;;;;;5072315;28;19924;-70
2022/07/06 00:13:33;;;;;;;;;;;12.90;99.90;;;;;;5071640;28;20003;-70
2022/07/06 00:15:59;;;;;;;;;;;12.90;99.90;;;;;;5071737;28;19956;-71
2022/07/06 00:18:26;;;;;;;;;;;12.80;99.90;;;;;;5073310;28;20011;-70
2022/07/06 00:20:53;;;;;;;;;;;12.80;99.90;;;;;;5070076;28;19966;-70
2022/07/06 00:23:19;;;;;;;;;;;12.80;99.90;;;;;;5070479;28;20031;-70
2022/07/06 00:25:47;;;;;;;;;;;12.80;99.90;;;;;;5068354;28;19925;-69
2022/07/06 00:28:14;;;;;;;;;;;12.90;99.90;;;;;;5072312;28;19925;-69
2022/07/06 00:30:42;;;;;;;;;;;12.80;99.90;;;;;;5067911;28;20615;-70
2022/07/06 00:33:09;;;;;;;;;;;12.80;99.90;;;;;;5071766;28;20447;-70
2022/07/06 00:35:36;;;;;;;;;;;12.70;99.90;;;;;;5067873;28;19935;-71
2022/07/06 00:38:02;;;;;;;;;;;12.70;99.90;;;;;;5071889;28;19925;-70
2022/07/06 00:40:29;;;;;;;;;;;12.70;99.90;;;;;;5066899;28;19951;-70
2022/07/06 00:42:56;;;;;;;;;;;12.60;99.90;;;;;;5070590;28;19924;-71
2022/07/06 00:45:23;;;;;;;;;;;12.60;99.90;;;;;;5068996;28;20039;-70
2022/07/06 00:47:51;;;;;;;;;;;12.50;99.90;;;;;;5062979;28;19999;-71
2022/07/06 00:50:20;;;;;;;;;;;12.50;99.90;;;;;;5066314;28;20269;-71
2022/07/06 00:52:48;;;;;;;;;;;12.50;99.90;;;;;;5072101;28;20407;-70
2022/07/06 00:55:16;;;;;;;;;;;12.40;99.90;;;;;;5063936;28;19931;-72
2022/07/06 00:57:43;;;;;;;;;;;12.40;99.90;;;;;;5068208;28;19930;-71
2022/07/06 01:00:11;;;;;;;;;;;12.40;99.90;;;;;;5065297;28;20469;-71
2022/07/06 01:02:38;;;;;;;;;;;12.30;99.90;;;;;;5068617;28;19929;-71
2022/07/06 01:05:06;;;;;;;;;;;12.30;99.90;;;;;;5066372;28;20023;-71
2022/07/06 01:07:34;;;;;;;;;;;12.30;99.90;;;;;;5067307;28;20032;-70
2022/07/06 01:10:02;;;;;;;;;;;12.30;99.90;;;;;;5068127;28;20015;-72
2022/07/06 01:12:29;;;;;;;;;;;12.30;99.90;;;;;;5067936;28;19955;-70
2022/07/06 01:14:55;;;;;;;;;;;12.30;99.90;;;;;;5059395;28;19925;-71
2022/07/06 01:17:22;;;;;;;;;;;12.30;99.90;;;;;;5069177;28;19971;-71
2022/07/06 01:19:49;;;;;;;;;;;12.30;99.90;;;;;;5066387;28;19928;-72
2022/07/06 01:22:17;;;;;;;;;;;12.20;99.90;;;;;;5072048;28;20367;-72
2022/07/06 01:24:43;;;;;;;;;;;12.20;99.90;;;;;;5069214;28;19960;-71
2022/07/06 01:27:10;;;;;;;;;;;12.20;99.90;;;;;;5067325;28;20126;-72
2022/07/06 01:29:37;;;;;;;;;;;12.20;99.90;;;;;;5065706;28;19925;-71
2022/07/06 01:32:04;;;;;;;;;;;12.20;99.90;;;;;;5070578;28;19924;-73
2022/07/06 01:34:30;;;;;;;;;;;12.10;99.90;;;;;;5067970;28;20017;-72
2022/07/06 01:36:57;;;;;;;;;;;12.10;99.90;;;;;;5068562;28;19960;-72
2022/07/06 01:39:25;;;;;;;;;;;12.10;99.90;;;;;;5066196;28;19946;-72
2022/07/06 01:41:52;;;;;;;;;;;12.10;99.90;;;;;;5069289;28;20326;-72
2022/07/06 01:44:19;;;;;;;;;;;12.10;99.90;;;;;;5068539;28;20274;-72
2022/07/06 01:46:45;;;;;;;;;;;12.00;99.90;;;;;;5069574;28;19951;-72
2022/07/06 01:49:12;;;;;;;;;;;12.00;99.90;;;;;;5065963;28;20015;-72
2022/07/06 01:51:38;;;;;;;;;;;12.00;99.90;;;;;;5068467;28;20023;-72
2022/07/06 01:54:05;;;;;;;;;;;12.00;99.90;;;;;;5069573;28;20356;-73
2022/07/06 01:56:35;;;;;;;;;;;11.90;99.90;;;;;;5068380;28;19982;-73
2022/07/06 01:59:02;;;;;;;;;;;11.90;99.90;;;;;;5068212;28;19970;-71
2022/07/06 02:01:29;;;;;;;;;;;11.90;99.90;;;;;;5069552;28;19929;-72
2022/07/06 02:03:55;;;;;;;;;;;11.90;99.90;;;;;;5070024;28;20761;-72
2022/07/06 02:06:22;;;;;;;;;;;11.80;99.90;;;;;;5069474;28;20437;-72
2022/07/06 02:08:51;;;;;;;;;;;11.80;99.90;;;;;;5064827;28;20370;-73
2022/07/06 02:11:18;;;;;;;;;;;11.80;99.90;;;;;;5069039;28;19931;-72
2022/07/06 02:13:46;;;;;;;;;;;11.80;99.90;;;;;;5068888;28;20364;-72
2022/07/06 02:16:13;;;;;;;;;;;11.70;99.90;;;;;;5065213;28;19924;-71
2022/07/06 02:18:40;;;;;;;;;;;11.70;99.90;;;;;;5064057;28;19932;-72
2022/07/06 02:21:07;;;;;;;;;;;11.70;99.90;;;;;;5070049;28;19960;-73
2022/07/06 02:23:33;;;;;;;;;;;11.60;99.90;;;;;;5069816;28;20019;-71
2022/07/06 02:26:00;;;;;;;;;;;11.60;99.90;;;;;;5068825;28;19929;-71
2022/07/06 02:28:27;;;;;;;;;;;11.60;99.90;;;;;;5068116;28;19968;-70
2022/07/06 02:30:55;;;;;;;;;;;11.60;99.90;;;;;;5062416;28;19975;-73
2022/07/06 02:33:22;;;;;;;;;;;11.60;99.90;;;;;;5070678;28;20028;-71
2022/07/06 02:35:48;;;;;;;;;;;11.60;99.90;;;;;;5067015;28;19924;-71
2022/07/06 02:38:15;;;;;;;;;;;11.60;99.90;;;;;;5069513;28;20367;-70
2022/07/06 02:40:42;;;;;;;;;;;11.60;99.90;;;;;;5058296;28;19968;-71
2022/07/06 02:43:08;;;;;;;;;;;11.60;99.90;;;;;;5065952;28;19974;-72
2022/07/06 02:45:35;;;;;;;;;;;11.50;99.90;;;;;;5065154;28;20050;-73
2022/07/06 02:48:03;;;;;;;;;;;11.50;99.90;;;;;;5064169;28;19990;-72
2022/07/06 02:50:30;;;;;;;;;;;11.50;99.90;;;;;;5056395;28;20471;-72
2022/07/06 02:52:58;;;;;;;;;;;11.40;99.90;;;;;;5057359;28;19924;-72
2022/07/06 02:55:25;;;;;;;;;;;11.50;99.90;;;;;;5061204;28;19952;-71
2022/07/06 02:57:51;;;;;;;;;;;11.50;99.90;;;;;;5061194;28;19981;-73
2022/07/06 03:00:18;;;;;;;;;;;11.50;99.90;;;;;;5055833;28;20007;-73
2022/07/06 03:02:45;;;;;;;;;;;11.40;99.90;;;;;;5057647;28;20383;-72
2022/07/06 03:05:13;;;;;;;;;;;11.40;99.90;;;;;;5057605;28;19971;-72
2022/07/06 03:07:39;;;;;;;;;;;11.50;99.90;;;;;;5062110;28;20019;-71
2022/07/06 03:10:06;;;;;;;;;;;11.40;99.90;;;;;;5060385;28;20016;-71
2022/07/06 03:12:33;;;;;;;;;;;11.40;99.90;;;;;;5056574;28;20451;-71
2022/07/06 03:15:00;;;;;;;;;;;11.20;99.90;;;;;;5057572;28;20015;-70
2022/07/06 03:17:27;;;;;;;;;;;11.20;99.90;;;;;;5058548;28;19925;-70
2022/07/06 03:19:53;;;;;;;;;;;11.20;99.90;;;;;;5057219;28;19963;-70
2022/07/06 03:22:23;;;;;;;;;;;11.20;99.90;;;;;;5062228;28;21291;-70
2022/07/06 03:24:50;;;;;;;;;;;11.20;99.90;;;;;;5059858;28;20074;-71
2022/07/06 03:27:17;;;;;;;;;;;11.20;99.90;;;;;;5058978;28;19978;-71
2022/07/06 03:29:43;;;;;;;;;;;11.10;99.90;;;;;;5057997;28;19964;-71
2022/07/06 03:32:10;;;;;;;;;;;11.20;99.90;;;;;;5060693;28;20371;-70
2022/07/06 03:34:37;;;;;;;;;;;11.10;99.90;;;;;;5059229;28;19964;-71
2022/07/06 03:37:04;;;;;;;;;;;11.10;99.90;;;;;;5062707;28;19925;-74
2022/07/06 03:39:32;;;;;;;;;;;11.10;99.90;;;;;;5061441;28;19924;-72
2022/07/06 03:41:58;;;;;;;;;;;10.90;99.90;;;;;;5068356;28;19966;-69
2022/07/06 03:44:25;;;;;;;;;;;10.80;99.90;;;;;;5069732;28;19975;-74
2022/07/06 03:46:55;;;;;;;;;;;10.80;99.90;;;;;;5068390;28;20276;-75
2022/07/06 03:49:21;;;;;;;;;;;10.80;99.90;;;;;;5068213;28;19954;-74
2022/07/06 03:51:48;;;;;;;;;;;10.90;99.90;;;;;;5068943;28;20388;-74
2022/07/06 03:54:15;;;;;;;;;;;10.90;99.90;;;;;;5065439;28;20484;-74
2022/07/06 03:56:43;;;;;;;;;;;11.00;99.90;;;;;;5066909;28;20144;-74
2022/07/06 03:59:09;;;;;;;;;;;11.10;99.90;;;;;;5066238;28;19967;-71
2022/07/06 04:01:36;;;;;;;;;;;11.10;99.90;;;;;;5066864;28;19963;-72
2022/07/06 04:04:03;;;;;;;;;;;11.20;99.90;;;;;;5070025;28;20572;-72
2022/07/06 04:06:30;;;;;;;;;;;11.20;99.90;;;;;;5070332;28;19967;-72
2022/07/06 04:08:56;;;;;;;;;;;11.20;99.90;;;;;;5068335;28;19939;-72
2022/07/06 04:11:23;;;;;;;;;;;11.30;99.90;;;;;;5072608;28;20019;-71
2022/07/06 04:13:51;;;;;;;;;;;11.40;99.90;;;;;;5069170;28;20019;-70
2022/07/06 04:16:18;;;;;;;;;;;11.50;99.90;;;;;;5071077;28;20027;-71
2022/07/06 04:18:45;;;;;;;;;;;11.70;99.90;;;;;;5071325;28;19924;-71
2022/07/06 04:21:11;;;;;;;;;;;11.80;99.90;;;;;;5070767;28;19981;-71
2022/07/06 04:23:38;;;;;;;;;;;11.90;99.90;;;;;;5069509;28;20343;-72
2022/07/06 04:26:05;;;;;;;;;;;11.90;99.90;;;;;;5069206;28;19978;-72
2022/07/06 04:28:31;;;;;;;;;;;12.10;99.90;;;;;;5071739;28;19932;-72
2022/07/06 04:30:59;;;;;;;;;;;12.10;99.90;;;;;;5064681;28;19930;-72
2022/07/06 04:33:26;;;;;;;;;;;12.10;99.90;;;;;;5069923;28;20007;-71
2022/07/06 04:35:53;;;;;;;;;;;12.10;99.90;;;;;;5068085;28;20016;-71
2022/07/06 04:38:19;;;;;;;;;;;12.10;99.90;;;;;;5072646;28;19971;-71
2022/07/06 04:40:47;;;;;;;;;;;12.20;99.90;;;;;;5070001;28;20102;-71
2022/07/06 04:43:14;;;;;;;;;;;12.10;99.90;;;;;;5068659;28;19928;-72
2022/07/06 04:45:40;;;;;;;;;;;12.20;99.90;;;;;;5069555;28;19924;-70
2022/07/06 04:48:08;;;;;;;;;;;12.20;99.90;;;;;;5071059;28;20015;-71
2022/07/06 04:50:36;;;;;;;;;;;12.20;99.90;;;;;;5069262;28;20087;-72
2022/07/06 04:53:02;;;;;;;;;;;12.30;99.90;;;;;;5068733;28;19931;-71
2022/07/06 04:55:30;;;;;;;;;;;12.40;99.90;;;;;;5064120;28;19975;-72
2022/07/06 04:57:56;;;;;;;;;;;12.50;99.90;;;;;;5070669;28;19931;-73
2022/07/06 05:00:23;;;;;;;;;;;12.50;99.90;;;;;;5068009;28;19935;-71
2022/07/06 05:02:50;;;;;;;;;;;12.60;99.90;;;;;;5071568;28;20019;-70
2022/07/06 05:05:18;;;;;;;;;;;12.60;99.90;;;;;;5068663;28;20013;-71
2022/07/06 05:07:44;;;;;;;;;;;12.60;99.90;;;;;;5067808;28;20015;-71
2022/07/06 05:10:12;;;;;;;;;;;12.60;99.90;;;;;;5069148;28;19982;-72
2022/07/06 05:12:39;;;;;;;;;;;12.70;99.90;;;;;;5065553;28;19972;-71
2022/07/06 05:15:06;;;;;;;;;;;12.80;99.90;;;;;;5060084;28;19932;-70
2022/07/06 05:17:33;;;;;;;;;;;12.90;99.90;;;;;;5072122;28;19924;-72
2022/07/06 05:19:59;;;;;;;;;;;13.10;99.90;;;;;;5068145;28;20016;-72
2022/07/06 05:22:27;;;;;;;;;;;13.20;99.90;;;;;;5070772;28;19931;-72
2022/07/06 05:24:54;;;;;;;;;;;13.40;99.90;;;;;;5066021;28;19928;-72
2022/07/06 05:27:21;;;;;;;;;;;13.60;99.90;;;;;;5068510;28;19963;-73
2022/07/06 05:29:48;;;;;;;;;;;13.70;99.90;;;;;;5067454;28;20448;-72
2022/07/06 05:32:14;;;;;;;;;;;13.80;99.90;;;;;;5066252;28;19935;-72
2022/07/06 05:34:41;;;;;;;;;;;13.90;99.90;;;;;;5067178;28;19970;-72
2022/07/06 05:37:07;;;;;;;;;;;14.00;99.90;;;;;;5070099;28;19979;-72
2022/07/06 05:39:36;;;;;;;;;;;14.20;99.90;;;;;;5067670;28;19928;-72
2022/07/06 05:42:02;;;;;;;;;;;14.30;99.90;;;;;;5065577;28;19968;-71
2022/07/06 05:44:29;;;;;;;;;;;14.60;99.90;;;;;;5065141;28;19924;-71
2022/07/06 05:50:11;;;;;;;;;;;15.00;99.90;;;;;;5067640;28;20011;-71
2022/07/06 05:52:27;;;;;;;;;;;15.80;99.90;;;;;;5068334;28;20444;-71
2022/07/06 05:54:55;;;;;;;;;;;16.30;99.90;;;;;;5066257;28;19933;-72
2022/07/06 05:57:22;;;;;;;;;;;16.60;99.90;;;;;;5061825;28;19925;-71
2022/07/06 05:59:48;;;;;;;;;;;16.80;99.90;;;;;;5065249;28;19968;-71
2022/07/06 06:02:15;;;;;;;;;;;17.20;99.90;;;;;;5053498;28;20394;-71
2022/07/06 06:04:42;;;;;;;;;;;17.50;99.90;;;;;;5057092;28;19947;-71
2022/07/06 06:07:08;;;;;;;;;;;18.20;99.90;;;;;;5062237;28;20121;-72
2022/07/06 06:09:35;;;;;;;;;;;18.30;99.90;;;;;;5057508;28;19963;-71
2022/07/06 06:12:03;;;;;;;;;;;18.70;99.90;;;;;;5064712;28;19930;-72
2022/07/06 06:14:30;;;;;;;;;;;19.20;99.40;;;;;;5062747;28;20421;-72
2022/07/06 06:16:57;;;;;;;;;;;19.40;97.80;;;;;;5061152;28;19925;-71
2022/07/06 06:19:23;;;;;;;;;;;19.70;96.80;;;;;;5059263;28;19939;-71
2022/07/06 06:21:51;;;;;;;;;;;19.70;96.30;;;;;;5059344;28;19935;-72
2022/07/06 06:24:18;;;;;;;;;;;20.30;96.70;;;;;;5059319;28;20387;-72
2022/07/06 06:26:44;;;;;;;;;;;21.50;93.70;;;;;;5060133;28;19960;-72
2022/07/06 06:29:12;;;;;;;;;;;21.70;91.60;;;;;;5060590;28;20063;-72
2022/07/06 06:31:39;;;;;;;;;;;22.50;89.50;;;;;;5062638;28;20538;-72
2022/07/06 06:34:06;;;;;;;;;;;22.20;84.70;;;;;;5061031;28;19931;-72
2022/07/06 06:36:32;;;;;;;;;;;21.90;84.90;;;;;;5066397;28;19954;-72
2022/07/06 06:39:02;;;;;;;;;;;21.50;85.50;;;;;;5057571;28;19954;-72
2022/07/06 06:41:29;;;;;;;;;;;21.00;86.50;;;;;;5062530;28;19924;-72
2022/07/06 06:43:56;;;;;;;;;;;20.40;89.80;;;;;;5060721;28;19932;-72
2022/07/06 06:46:24;;;;;;;;;;;20.00;90.70;;;;;;5061883;28;20028;-72
2022/07/06 06:48:51;;;;;;;;;;;19.70;91.50;;;;;;5061734;28;20353;-72
2022/07/06 06:51:20;;;;;;;;;;;19.60;92.60;;;;;;5064977;28;20272;-72
2022/07/06 06:53:47;;;;;;;;;;;19.50;92.90;;;;;;5062278;28;19930;-72
2022/07/06 06:56:14;;;;;;;;;;;19.50;93.90;;;;;;5056211;28;19983;-72
2022/07/06 06:58:40;;;;;;;;;;;19.50;92.60;;;;;;5056162;28;20004;-72
2022/07/06 07:01:07;;;;;;;;;;;19.80;92.80;;;;;;5054710;28;19931;-73
2022/07/06 07:03:35;;;;;;;;;;;20.40;91.60;;;;;;5058215;28;19943;-73
2022/07/06 07:06:02;;;;;;;;;;;20.70;89.90;;;;;;5060435;28;20403;-73
2022/07/06 07:08:29;;;;;;;;;;;20.90;89.20;;;;;;5056892;28;19932;-73
2022/07/06 07:10:55;;;;;;;;;;;21.60;85.30;;;;;;5053722;28;19979;-72
2022/07/06 07:13:22;;;;;;;;;;;21.80;81.80;;;;;;5060177;28;20040;-72
2022/07/06 07:15:49;;;;;;;;;;;22.70;79.40;;;;;;5056054;28;19999;-74
2022/07/06 07:18:15;;;;;;;;;;;23.90;67.90;;;;;;5062794;28;19925;-73
2022/07/06 07:20:44;;;;;;;;;;;23.70;60.30;;;;;;5054785;28;20035;-73
2022/07/06 07:23:10;;;;;;;;;;;23.10;59.80;;;;;;5061963;28;19929;-73
2022/07/06 07:25:38;;;;;;;;;;;22.60;60.80;;;;;;5061859;28;19932;-72
2022/07/06 07:28:05;;;;;;;;;;;22.30;65.60;;;;;;5062231;28;19951;-72
2022/07/06 07:30:32;;;;;;;;;;;22.30;64.10;;;;;;5062150;28;19925;-72
2022/07/06 07:33:00;;;;;;;;;;;22.20;65.60;;;;;;5060905;28;19932;-73
2022/07/06 07:35:27;;;;;;;;;;;22.90;60.50;;;;;;5056189;28;19932;-73
2022/07/06 07:37:55;;;;;;;;;;;23.50;58.60;;;;;;5065579;28;20637;-72
2022/07/06 07:40:22;;;;;;;;;;;23.60;55.30;;;;;;5063661;28;20015;-73
2022/07/06 07:42:49;;;;;;;;;;;24.10;54.80;;;;;;5057781;28;19944;-72
2022/07/06 07:45:16;;;;;;;;;;;24.70;53.40;;;;;;5059499;28;19972;-73
2022/07/06 07:47:43;;;;;;;;;;;25.50;48.40;;;;;;5060307;28;20106;-72
2022/07/06 07:50:10;;;;;;;;;;;25.40;42.40;;;;;;5058931;28;20555;-72
2022/07/06 07:52:37;;;;;;;;;;;25.40;42.50;;;;;;5057321;28;19935;-73
2022/07/06 07:55:05;;;;;;;;;;;26.40;36.10;;;;;;5055073;28;20023;-72
2022/07/06 07:57:32;;;;;;;;;;;27.40;35.40;;;;;;5062046;28;20451;-72
2022/07/06 07:59:59;;;;;;;;;;;27.20;32.10;;;;;;5058562;28;20015;-73
2022/07/06 08:02:25;;;;;;;;;;;27.10;36.20;;;;;;5058372;28;20058;-72
2022/07/06 08:04:52;;;;;;;;;;;26.40;33.70;;;;;;5062889;28;19929;-72
2022/07/06 08:07:19;;;;;;;;;;;26.80;45.70;;;;;;5062985;28;20313;-73
2022/07/06 08:09:46;;;;;;;;;;;27.20;42.80;;;;;;5057765;28;19943;-72
2022/07/06 08:12:14;;;;;;;;;;;27.00;42.60;;;;;;5061376;28;19924;-72
2022/07/06 08:14:41;;;;;;;;;;;27.10;40.50;;;;;;5057506;28;20019;-72
2022/07/06 08:17:07;;;;;;;;;;;27.10;42.00;;;;;;5065807;28;19924;-71
2022/07/06 08:19:34;;;;;;;;;;;27.30;41.20;;;;;;5060990;28;20007;-72
2022/07/06 08:22:06;;;;;;;;;;;27.50;40.90;;;;;;5062743;28;19944;-72
2022/07/06 08:24:33;;;;;;;;;;;27.70;40.90;;;;;;5065985;28;19978;-72
2022/07/06 08:27:00;;;;;;;;;;;28.20;42.30;;;;;;5066567;28;19965;-72
2022/07/06 08:29:28;;;;;;;;;;;28.20;47.80;;;;;;5064488;28;20019;-78
2022/07/06 08:31:55;;;;;;;;;;;;;;;;;;5059444;28;20027;-77
2022/07/06 08:34:22;;;;;;;;;;;;;;;;;;5059780;28;20008;-78
2022/07/06 08:36:49;;;;;;;;;;;;;;;;;;5060325;28;20011;-77
2022/07/06 08:39:17;;;;;;;;;;;;;;;;;;5061753;28;20017;-78
2022/07/06 08:41:47;;;;;;;;;;;;;;;;;;5062902;28;19970;-77
2022/07/06 08:44:14;;;;;;;;;;;25.20;61.10;;;;;;5062874;28;20011;-72
2022/07/06 08:46:42;;;;;;;;;;;25.50;60.70;;;;;;5065059;28;19925;-73
2022/07/06 08:49:13;;;;;;;;;;;25.40;61.00;;;;;;5066084;28;19959;-72
2022/07/06 08:51:41;;;;;;;;;;;25.10;61.10;;;;;;5063350;28;19929;-73
2022/07/06 08:54:08;;;;;;;;;;;25.10;62.20;;;;;;5060484;28;20049;-72
2022/07/06 08:56:35;;;;;;;;;;;25.50;60.10;;;;;;5061138;28;19936;-72
2022/07/06 08:59:02;;;;;;;;;;;;;;;;;;5061614;28;20019;-73
2022/07/06 09:01:29;;;;;;;;;;;25.50;59.80;;;;;;5062455;28;20022;-72
2022/07/06 09:03:58;;;;;;;;;;;25.40;61.90;;;;;;5062516;28;20039;-72
2022/07/06 09:06:25;;;;;;;;;;;26.00;60.50;;;;;;5061802;28;19925;-73
2022/07/06 09:08:54;;;;;;;;;;;26.60;59.10;;;;;;5060795;28;20015;-75
2022/07/06 09:11:21;;;;;;;;;;;26.50;58.30;;;;;;5062604;28;19933;-71
2022/07/06 09:13:48;;;;;;;;;;;26.20;58.50;;;;;;5064489;28;20036;-73
2022/07/06 09:16:16;;;;;;;;;;;26.10;59.10;;;;;;5055670;28;20906;-73
2022/07/06 09:18:45;;;;;;;;;;;26.20;59.00;;;;;;5057976;28;19933;-73
2022/07/06 09:21:22;;;;;;;;;;;27.00;58.50;;;;;;5064609;28;19967;-73
2022/07/06 09:23:53;;;;;;;;;;;26.90;57.20;;;;;;5063539;28;20003;-72
2022/07/06 09:26:20;;;;;;;;;;;;;;;;;;5064745;28;19968;-75
2022/07/06 09:28:47;;;;;;;;;;;;;;;;;;5061837;28;20333;-72
2022/07/06 09:31:14;;;;;;;;;;;24.50;66.70;;;;;;5067668;28;20027;-73
2022/07/06 09:33:53;;;;;;;;;;;24.10;65.30;;;;;;5059114;28;20012;-74
2022/07/06 09:36:37;;;;;;;;;;;23.40;66.70;;;;;;5058309;28;20366;-72
2022/07/06 09:39:15;;;;;;;;;;;23.70;67.50;;;;;;5061554;28;19976;-71
2022/07/06 09:41:41;;;;;;;;;;;23.90;65.90;;;;;;5060788;28;19997;-73
2022/07/06 09:44:10;;;;;;;;;;;24.00;65.80;;;;;;5061403;28;20002;-75
2022/07/06 09:46:43;;;;;;;;;;;24.30;63.10;;;;;;5056172;28;19932;-74
2022/07/06 09:49:13;;;;;;;;;;;24.10;64.50;;;;;;5061963;28;19925;-75
2022/07/06 09:51:48;;;;;;;;;;;24.10;63.80;;;;;;5060421;28;19936;-70
2022/07/06 09:54:18;;;;;;;;;;;24.60;63.80;;;;;;5058724;28;20449;-72
2022/07/06 09:56:47;;;;;;;;;;;25.10;61.70;;;;;;5067319;28;20015;-74
2022/07/06 09:59:22;;;;;;;;;;;25.30;59.80;;;;;;5059919;28;19964;-71
2022/07/06 10:01:52;;;;;;;;;;;24.90;59.10;;;;;;5060755;28;19929;-71
2022/07/06 10:04:24;;;;;;;;;;;24.70;59.80;;;;;;5058178;28;19933;-75
2022/07/06 10:06:53;;;;;;;;;;;24.80;59.90;;;;;;5061650;28;20003;-75
2022/07/06 10:09:20;;;;;;;;;;;25.10;58.80;;;;;;5062083;28;20334;-74
2022/07/06 10:11:49;;;;;;;;;;;25.80;56.80;;;;;;5059647;28;20383;-76
2022/07/06 10:14:18;;;;;;;;;;;25.70;56.70;;;;;;5061030;28;19928;-76
2022/07/06 10:16:45;;;;;;;;;;;;;;;;;;5062907;28;19998;-75
2022/07/06 10:19:24;;;;;;;;;;;23.20;69.90;;;;;;5058358;28;19928;-76
2022/07/06 10:21:52;;;;;;;;;;;23.20;64.30;;;;;;5059172;28;20361;-75
2022/07/06 10:24:20;;;;;;;;;;;22.40;65.10;;;;;;5057322;28;19928;-75
2022/07/06 10:26:47;;;;;;;;;;;21.70;68.90;;;;;;5060269;28;20063;-75
2022/07/06 10:29:14;;;;;;;;;;;21.70;68.60;;;;;;5058349;28;19939;-75
2022/07/06 10:31:41;;;;;;;;;;;22.30;67.60;;;;;;5060194;28;19947;-75
2022/07/06 10:34:10;;;;;;;;;;;22.50;64.90;;;;;;5055817;28;19924;-74
2022/07/06 10:36:40;;;;;;;;;;;22.80;64.30;;;;;;5059479;28;20079;-75
2022/07/06 10:41:53;;;;;;;;;;;23.10;62.60;;;;;;5060203;28;19960;-74
2022/07/06 10:44:21;;;;;;;;;;;23.40;61.00;;;;;;5056971;28;20718;-74
2022/07/06 10:46:52;;;;;;;;;;;23.10;62.30;;;;;;5061491;28;20027;-73
2022/07/06 10:49:19;;;;;;;;;;;23.40;58.60;;;;;;5062349;28;20330;-74
2022/07/06 10:51:47;;;;;;;;;;;23.40;59.50;;;;;;5063225;28;19925;-75
2022/07/06 10:54:15;;;;;;;;;;;23.70;60.00;;;;;;5057577;28;19925;-74
2022/07/06 10:56:44;;;;;;;;;;;24.00;60.80;;;;;;5059447;28;19980;-74
2022/07/06 10:59:12;;;;;;;;;;;24.00;59.80;;;;;;5060329;28;19924;-74
2022/07/06 11:01:39;;;;;;;;;;;24.20;60.20;;;;;;5057685;28;19965;-74
2022/07/06 11:04:06;;;;;;;;;;;24.00;60.20;;;;;;5063686;28;19940;-74
2022/07/06 11:06:34;;;;;;;;;;;24.10;61.90;;;;;;5057608;28;20011;-73
2022/07/06 11:09:01;;;;;;;;;;;24.10;61.10;;;;;;5052663;28;20419;-74
2022/07/06 11:11:40;;;;;;;;;;;23.50;61.80;;;;;;5058487;28;20060;-73
2022/07/06 11:14:07;;;;;;;;;;;23.30;63.40;;;;;;5065649;28;19947;-74
2022/07/06 11:16:36;;;;;;;;;;;23.60;64.00;;;;;;5068233;28;20003;-74
2022/07/06 11:19:05;;;;;;;;;;;23.60;63.80;;;;;;5056544;28;19939;-73
2022/07/06 11:21:39;;;;;;;;;;;23.60;63.90;;;;;;5064809;28;19931;-73
2022/07/06 11:24:07;;;;;;;;;;;23.50;64.90;;;;;;5060618;28;20444;-74
2022/07/06 11:26:36;;;;;;;;;;;23.40;64.30;;;;;;5059811;28;19924;-74
2022/07/06 11:29:04;;;;;;;;;;;23.40;64.60;;;;;;5057314;28;19932;-73
2022/07/06 11:31:31;;;;;;;;;;;23.30;65.00;;;;;;5049164;28;19932;-74
2022/07/06 11:33:57;;;;;;;;;;;23.70;65.10;;;;;;5062372;28;20277;-74
2022/07/06 11:36:24;;;;;;;;;;;23.80;65.10;;;;;;5063002;28;19960;-73
2022/07/06 11:38:51;;;;;;;;;;;23.70;63.80;;;;;;5057510;28;20011;-75
2022/07/06 11:41:18;;;;;;;;;;;23.70;65.00;;;;;;5062473;28;20341;-74
2022/07/06 11:43:47;;;;;;;;;;;24.30;64.50;;;;;;5062340;28;20709;-74
2022/07/06 11:46:24;;;;;;;;;;;24.60;61.70;;;;;;5064829;28;19931;-74
2022/07/06 11:48:51;;;;;;;;;;;24.40;61.80;;;;;;5061228;28;19935;-73
2022/07/06 11:51:18;;;;;;;;;;;23.70;64.20;;;;;;5058456;28;19931;-74
2022/07/06 11:53:46;;;;;;;;;;;23.50;66.10;;;;;;5056114;28;20046;-74
2022/07/06 11:56:13;;;;;;;;;;;23.70;64.60;;;;;;5056337;28;20384;-74
2022/07/06 11:58:42;;;;;;;;;;;24.00;64.10;;;;;;5058889;28;20019;-74
2022/07/06 12:01:11;;;;;;;;;;;24.20;63.40;;;;;;5058895;28;20002;-73
2022/07/06 12:03:38;;;;;;;;;;;24.10;63.10;;;;;;5062387;28;19936;-73
2022/07/06 12:06:07;;;;;;;;;;;23.80;63.30;;;;;;5056385;28;20015;-73
2022/07/06 12:08:41;;;;;;;;;;;23.80;64.50;;;;;;5063958;28;19924;-74
2022/07/06 12:11:08;;;;;;;;;;;23.90;64.40;;;;;;5061156;28;20387;-74
2022/07/06 12:13:36;;;;;;;;;;;24.00;65.60;;;;;;5063877;28;19931;-73
2022/07/06 12:16:11;;;;;;;;;;;24.00;65.80;;;;;;5057657;28;20417;-73
2022/07/06 12:18:37;;;;;;;;;;;23.90;64.80;;;;;;5053963;28;20019;-72
2022/07/06 12:21:04;;;;;;;;;;;23.50;65.70;;;;;;5056082;28;20562;-73
2022/07/06 12:23:39;;;;;;;;;;;23.20;66.90;;;;;;5057348;28;19971;-73
2022/07/06 12:26:05;;;;;;;;;;;23.40;67.40;;;;;;5056566;28;20461;-73
2022/07/06 12:28:32;;;;;;;;;;;23.30;67.70;;;;;;5057308;28;20015;-73
2022/07/06 12:30:59;;;;;;;;;;;23.00;68.80;;;;;;5056457;28;20058;-73
2022/07/06 12:33:27;;;;;;;;;;;23.10;67.30;;;;;;5061996;28;20302;-72
2022/07/06 12:35:54;;;;;;;;;;;23.10;66.90;;;;;;5065894;28;20379;-74
2022/07/06 12:38:24;;;;;;;;;;;23.40;67.30;;;;;;5060760;28;20020;-73
2022/07/06 12:40:50;;;;;;;;;;;23.60;65.80;;;;;;5061435;28;20291;-73
2022/07/06 12:43:32;;;;;;;;;;;23.50;65.30;;;;;;5061439;28;19946;-74
2022/07/06 12:45:59;;;;;;;;;;;23.10;66.00;;;;;;5058587;28;19928;-74
2022/07/06 12:48:28;;;;;;;;;;;23.20;66.60;;;;;;5059343;28;19970;-73
2022/07/06 12:50:57;;;;;;;;;;;23.20;66.80;;;;;;5057267;28;20009;-73
2022/07/06 12:53:27;;;;;;;;;;;23.40;65.10;;;;;;5057216;28;19939;-73
2022/07/06 12:56:08;;;;;;;;;;;23.70;62.20;;;;;;5059625;28;20360;-74
2022/07/06 12:58:35;;;;;;;;;;;24.00;61.10;;;;;;5060177;28;19955;-75
2022/07/06 13:01:02;;;;;;;;;;;24.10;61.80;;;;;;5058898;28;20355;-74
2022/07/06 13:03:38;;;;;;;;;;;24.00;61.00;;;;;;5057193;28;20059;-74
2022/07/06 13:06:05;;;;;;;;;;;24.10;60.60;;;;;;5060953;28;20523;-74
2022/07/06 13:08:32;;;;;;;;;;;24.30;60.50;;;;;;5062946;28;20008;-73
2022/07/06 13:10:59;;;;;;;;;;;24.60;60.90;;;;;;5062379;28;20387;-73
2022/07/06 13:13:26;;;;;;;;;;;24.80;60.80;;;;;;5063522;28;19931;-73
2022/07/06 13:15:52;;;;;;;;;;;25.00;59.10;;;;;;5066394;28;19924;-73
2022/07/06 13:18:19;;;;;;;;;;;25.10;57.90;;;;;;5064395;28;20353;-73
2022/07/06 13:20:47;;;;;;;;;;;25.00;58.50;;;;;;5058042;28;20024;-73
2022/07/06 13:23:14;;;;;;;;;;;24.70;58.70;;;;;;5063786;28;19931;-73
2022/07/06 13:25:41;;;;;;;;;;;24.60;60.50;;;;;;5059425;28;20013;-71
2022/07/06 13:28:08;;;;;;;;;;;24.60;59.70;;;;;;5062712;28;20004;-72
2022/07/06 13:30:34;;;;;;;;;;;24.30;60.30;;;;;;5064443;28;19924;-71
2022/07/06 13:33:01;;;;;;;;;;;23.70;60.50;;;;;;5062532;28;19930;-70
2022/07/06 13:35:28;;;;;;;;;;;23.70;60.50;;;;;;5056220;28;19975;-72
2022/07/06 13:37:56;;;;;;;;;;;23.80;60.70;;;;;;5061715;28;19976;-72
2022/07/06 13:40:23;;;;;;;;;;;24.10;62.10;;;;;;5060175;28;20447;-72
2022/07/06 13:42:49;;;;;;;;;;;24.40;60.70;;;;;;5057157;28;19939;-72
2022/07/06 13:45:16;;;;;;;;;;;24.70;61.20;;;;;;5058664;28;20033;-72
2022/07/06 13:47:43;;;;;;;;;;;25.10;60.10;;;;;;5059502;28;19925;-74
2022/07/06 13:50:10;;;;;;;;;;;25.30;59.20;;;;;;5058644;28;20027;-72
2022/07/06 13:52:37;;;;;;;;;;;25.00;59.60;;;;;;5058850;28;20522;-71
2022/07/06 13:55:06;;;;;;;;;;;25.20;59.20;;;;;;5056439;28;20002;-73
2022/07/06 13:57:33;;;;;;;;;;;25.50;59.10;;;;;;5058219;28;20536;-72
2022/07/06 14:00:00;;;;;;;;;;;25.70;58.40;;;;;;5061624;28;20015;-72
2022/07/06 14:02:27;;;;;;;;;;;25.70;58.00;;;;;;5055959;28;19990;-72
2022/07/06 14:04:54;;;;;;;;;;;25.40;58.60;;;;;;5057063;28;19924;-73
2022/07/06 14:07:20;;;;;;;;;;;25.20;58.50;;;;;;5059437;28;20028;-72
2022/07/06 14:09:51;;;;;;;;;;;24.90;58.70;;;;;;5058685;28;19924;-72
2022/07/06 14:12:21;;;;;;;;;;;24.80;58.60;;;;;;5062657;28;20021;-72
2022/07/06 14:14:48;;;;;;;;;;;24.70;59.70;;;;;;5061665;28;20019;-72
2022/07/06 14:17:15;;;;;;;;;;;24.80;59.00;;;;;;5062696;28;19959;-72
2022/07/06 14:19:42;;;;;;;;;;;24.90;59.20;;;;;;5056691;28;20439;-73
2022/07/06 14:22:08;;;;;;;;;;;24.90;58.80;;;;;;5060748;28;19978;-75
2022/07/06 14:24:35;;;;;;;;;;;24.90;59.70;;;;;;5059666;28;20018;-75
2022/07/06 14:27:02;;;;;;;;;;;25.30;58.70;;;;;;5064103;28;20383;-75
2022/07/06 14:29:30;;;;;;;;;;;25.10;58.30;;;;;;5066650;28;20014;-73